Time;durP1;ratioP1;P1;durP2;ratioP2;P2;SDS_P1;SDS_P2;PMS_P1;PMS_P2;Temp;Humidity;BMP_temperature;BMP_pressure;BME280_temperature;BME280_humidity;BME280_pressure;Samples;Min_cycle;Max_cycle;Signal;HPM_P1;HPM_P2
2022/06/21 00:00:23;;;;;;;2.90;1.67;;;;;;;14.75;78.48;98152.31;1736648;82;25403;-58
2022/06/21 00:02:54;;;;;;;3.42;1.90;;;;;;;14.74;78.43;98154.05;1736519;82;28339;-58
2022/06/21 00:05:28;;;;;;;5.87;2.40;;;;;;;14.73;78.54;98162.89;1736360;82;25599;-58
2022/06/21 00:07:56;;;;;;;2.98;2.10;;;;;;;14.71;78.29;98163.81;1732746;82;25959;-57
2022/06/21 00:10:23;;;;;;;3.35;2.60;;;;;;;14.71;78.67;98167.16;1734899;82;26312;-57
2022/06/21 00:12:49;;;;;;;4.50;2.87;;;;;;;14.71;78.79;98161.65;1734699;82;26398;-57
2022/06/21 00:15:16;;;;;;;13.00;9.08;;;;;;;14.70;78.60;98164.98;1735911;82;27312;-57
2022/06/21 00:17:46;;;;;;;8.93;5.80;;;;;;;14.69;78.42;98171.66;1735692;82;25680;-58
2022/06/21 00:20:20;;;;;;;5.10;3.60;;;;;;;14.67;78.70;98184.98;1736289;82;25680;-57
2022/06/21 00:22:49;;;;;;;5.75;2.87;;;;;;;14.66;78.46;98176.50;1737575;81;25640;-57
2022/06/21 00:25:20;;;;;;;4.42;3.35;;;;;;;14.67;78.43;98184.42;1739036;82;25649;-58
2022/06/21 00:27:47;;;;;;;5.22;3.00;;;;;;;14.72;78.82;98183.92;1738435;82;27362;-58
2022/06/21 00:30:16;;;;;;;5.92;3.30;;;;;;;14.75;79.12;98180.46;1738630;82;25752;-57
2022/06/21 00:32:42;;;;;;;5.20;3.25;;;;;;;14.83;78.99;98182.86;1739000;82;25624;-58
2022/06/21 00:35:14;;;;;;;5.00;3.60;;;;;;;14.87;78.38;98179.05;1738955;82;26269;-57
2022/06/21 00:37:41;;;;;;;5.78;3.20;;;;;;;14.85;78.39;98191.00;1739068;82;25415;-58
2022/06/21 00:40:18;;;;;;;5.58;2.98;;;;;;;14.88;78.12;98181.23;1738892;82;27669;-57
2022/06/21 00:42:50;;;;;;;5.83;3.12;;;;;;;14.92;78.59;98184.31;1739204;82;25873;-57
2022/06/21 00:45:31;;;;;;;4.62;3.02;;;;;;;14.98;78.11;98186.22;1738725;82;25495;-58
2022/06/21 00:48:08;;;;;;;4.42;2.90;;;;;;;14.97;78.71;98181.06;1738881;82;25727;-57
2022/06/21 00:50:42;;;;;;;5.37;3.12;;;;;;;14.87;78.26;98181.80;1738260;82;25588;-58
2022/06/21 00:53:29;;;;;;;6.97;3.33;;;;;;;14.87;78.18;98189.27;1738792;82;27512;-57
2022/06/21 00:56:15;;;;;;;5.67;3.30;;;;;;;14.93;78.40;98178.20;1738832;82;25695;-58
2022/06/21 00:58:42;;;;;;;5.58;3.47;;;;;;;14.92;78.08;98180.73;1738706;82;25640;-57
2022/06/21 01:01:25;;;;;;;8.55;5.22;;;;;;;14.92;78.52;98175.22;1739018;82;25554;-57
2022/06/21 01:04:02;;;;;;;6.72;5.03;;;;;;;14.92;78.17;98176.03;1739076;82;25495;-57
2022/06/21 01:06:42;;;;;;;5.62;4.95;;;;;;;14.92;78.17;98176.03;1736510;82;27645;-57
2022/06/21 01:09:20;;;;;;;8.75;7.28;;;;;;;14.92;78.22;98178.80;1739196;82;25670;-58
2022/06/21 01:11:54;;;;;;;9.10;6.72;;;;;;;14.88;77.57;98176.50;1737033;82;25593;-57
2022/06/21 01:14:23;;;;;;;7.25;6.40;;;;;;;14.84;77.56;98174.80;1739040;82;26405;-57
2022/06/21 01:16:50;;;;;;;6.80;5.75;;;;;;;14.82;78.14;98177.13;1739161;82;25780;-58
2022/06/21 01:19:22;;;;;;;8.38;6.40;;;;;;;14.79;78.14;98163.45;1738751;82;27397;-58
2022/06/21 01:21:52;;;;;;;14.40;6.42;;;;;;;14.86;78.20;98166.98;1736468;81;25852;-57
2022/06/21 01:24:35;;;;;;;11.85;7.05;;;;;;;14.83;77.77;98166.31;1739332;82;25620;-57
2022/06/21 01:27:04;;;;;;;11.05;7.53;;;;;;;14.77;78.19;98167.91;1737345;82;25482;-58
2022/06/21 01:29:33;;;;;;;11.57;7.50;;;;;;;14.70;78.25;98166.92;1738910;82;25681;-58
2022/06/21 01:32:05;;;;;;;9.60;6.53;;;;;;;14.65;78.38;98166.63;1738655;82;27475;-57
2022/06/21 01:34:32;;;;;;;9.50;6.20;;;;;;;14.60;78.07;98176.53;1738885;82;25925;-58
2022/06/21 01:37:12;;;;;;;6.97;4.67;;;;;;;14.54;78.71;98175.39;1738936;82;25474;-57
2022/06/21 01:40:02;;;;;;;6.37;3.62;;;;;;;14.48;78.66;98177.39;1738889;82;27577;-58
2022/06/21 01:42:32;;;;;;;9.75;6.87;;;;;;;14.49;79.02;98181.75;1739095;82;25645;-57
2022/06/21 01:45:07;;;;;;;11.43;7.97;;;;;;;14.49;78.59;98176.23;1739124;82;27405;-57
2022/06/21 01:47:53;;;;;;;8.95;6.87;;;;;;;14.48;78.49;98171.88;1738958;82;25921;-58
2022/06/21 01:50:22;;;;;;;8.68;6.90;;;;;;;14.43;78.26;98174.31;1739113;82;26441;-58
2022/06/21 01:52:52;;;;;;;9.58;7.65;;;;;;;14.39;78.37;98188.58;1739062;82;25460;-57
2022/06/21 01:55:30;;;;;;;8.40;6.77;;;;;;;14.41;78.11;98187.07;1739567;82;25738;-57
2022/06/21 01:57:59;;;;;;;8.30;6.25;;;;;;;14.38;78.13;98186.39;1738761;82;27600;-57
2022/06/21 02:00:27;;;;;;;9.50;6.78;;;;;;;14.35;78.07;98194.55;1739410;82;25728;-57
2022/06/21 02:03:02;;;;;;;9.23;6.75;;;;;;;14.30;78.23;98199.73;1739075;82;25683;-57
2022/06/21 02:05:36;;;;;;;8.33;6.35;;;;;;;14.21;77.96;98197.13;1739321;82;27261;-57
2022/06/21 02:08:15;;;;;;;9.38;6.15;;;;;;;14.10;78.51;98209.21;1739141;82;25720;-57
2022/06/21 02:10:49;;;;;;;8.58;6.67;;;;;;;14.09;78.85;98210.37;1739198;82;27461;-57
2022/06/21 02:13:26;;;;;;;8.33;7.00;;;;;;;14.08;78.53;98210.16;1738978;82;25749;-57
2022/06/21 02:15:59;;;;;;;10.60;6.80;;;;;;;14.10;78.49;98209.21;1733325;82;25454;-57
2022/06/21 02:18:30;;;;;;;7.85;6.60;;;;;;;14.08;79.38;98211.53;1739169;82;25607;-57
2022/06/21 02:21:05;;;;;;;10.00;7.30;;;;;;;14.06;78.88;98213.83;1739438;82;25706;-57
2022/06/21 02:23:31;;;;;;;10.23;7.95;;;;;;;14.05;78.96;98221.88;1739104;81;27467;-57
2022/06/21 02:25:58;;;;;;;10.72;7.37;;;;;;;14.03;78.90;98208.45;1738918;82;25861;-57
2022/06/21 02:28:28;;;;;;;9.73;7.72;;;;;;;14.03;78.90;98208.45;1739149;82;25470;-58
2022/06/21 02:30:55;;;;;;;11.78;8.08;;;;;;;14.23;79.15;98215.50;1738603;82;25645;-57
2022/06/21 02:33:31;;;;;;;8.35;6.62;;;;;;;14.17;78.82;98198.98;1739329;82;25635;-57
2022/06/21 02:36:06;;;;;;;7.55;5.12;;;;;;;14.17;78.82;98198.98;1736618;82;26461;-57
2022/06/21 02:38:40;;;;;;;5.12;3.80;;;;;;;14.17;78.67;98205.28;1739114;82;25653;-57
2022/06/21 02:41:20;;;;;;;7.35;2.83;;;;;;;14.11;78.69;98205.33;1738592;82;25458;-57
2022/06/21 02:43:57;;;;;;;3.15;2.52;;;;;;;13.97;78.61;98211.77;1739018;82;25605;-57
2022/06/21 02:46:35;;;;;;;5.40;2.75;;;;;;;13.84;78.39;98209.63;1739298;82;25673;-57
2022/06/21 02:49:12;;;;;;;3.72;2.90;;;;;;;13.76;78.26;98207.23;1739109;82;27453;-57
2022/06/21 02:51:43;;;;;;;6.10;2.60;;;;;;;13.63;78.73;98210.56;1731221;82;25798;-57
2022/06/21 02:54:17;;;;;;;6.15;3.05;;;;;;;13.52;78.79;98214.34;1738553;82;25679;-57
2022/06/21 02:57:10;;;;;;;3.65;3.05;;;;;;;13.51;79.21;98224.57;1739012;82;25735;-57
2022/06/21 02:59:39;;;;;;;4.08;2.90;;;;;;;13.49;79.15;98224.07;1739145;82;25645;-55
2022/06/21 03:02:11;;;;;;;6.85;3.02;;;;;;;13.54;78.92;98223.07;1739136;82;27558;-56
2022/06/21 03:04:42;;;;;;;6.55;3.77;;;;;;;13.61;78.81;98219.16;1739367;82;26017;-56
2022/06/21 03:07:13;;;;;;;3.87;2.80;;;;;;;13.61;78.59;98225.23;1739064;82;25462;-56
2022/06/21 03:09:39;;;;;;;4.95;2.72;;;;;;;13.62;78.64;98218.00;1738720;82;25460;-56
2022/06/21 03:12:07;;;;;;;3.50;2.80;;;;;;;13.59;78.21;98216.53;1739124;82;25604;-56
2022/06/21 03:14:36;;;;;;;5.47;2.40;;;;;;;13.57;78.09;98218.25;1739140;82;28494;-56
2022/06/21 03:17:07;;;;;;;5.60;3.17;;;;;;;13.57;78.37;98214.12;1739008;82;25438;-56
2022/06/21 03:19:52;;;;;;;3.70;2.75;;;;;;;13.54;78.76;98217.00;1739248;82;25596;-56
2022/06/21 03:22:29;;;;;;;5.87;2.80;;;;;;;13.42;78.54;98216.38;1739473;81;25621;-56
2022/06/21 03:24:59;;;;;;;4.08;3.10;;;;;;;13.42;78.73;98217.75;1731354;82;25455;-56
2022/06/21 03:27:36;;;;;;;6.80;3.75;;;;;;;13.43;79.13;98222.12;1731340;82;29165;-56
2022/06/21 03:30:05;;;;;;;5.85;2.98;;;;;;;13.48;79.48;98213.41;1731271;82;25447;-56
2022/06/21 03:32:36;;;;;;;5.25;2.75;;;;;;;13.52;79.41;98212.41;1731158;82;25503;-56
2022/06/21 03:35:06;;;;;;;8.13;2.75;;;;;;;13.61;79.48;98219.73;1730840;82;25427;-55
2022/06/21 03:37:37;;;;;;;3.87;2.77;;;;;;;13.71;79.14;98222.03;1731452;82;25601;-56
2022/06/21 03:42:53;;;;;;;3.42;2.50;;;;;;;13.92;78.69;98216.38;1730781;82;25447;-56
2022/06/21 03:45:27;;;;;;;5.92;2.92;;;;;;;14.04;78.76;98214.73;1731148;82;25459;-56
2022/06/21 03:48:01;;;;;;;10.63;3.00;;;;;;;14.15;78.53;98224.70;1730988;82;26223;-56
2022/06/21 03:50:36;;;;;;;4.62;2.80;;;;;;;14.23;78.00;98225.72;1731151;82;25490;-56
2022/06/21 03:53:19;;;;;;;4.33;2.60;;;;;;;14.27;78.11;98221.91;1708215;82;28251;-56
2022/06/21 03:56:05;;;;;;;5.33;2.77;;;;;;;14.21;77.79;98215.04;1731463;82;25561;-56
2022/06/21 03:59:08;;;;;;;4.67;2.62;;;;;;;14.13;77.22;98224.27;1731327;82;25499;-56
2022/06/21 04:01:46;;;;;;;4.80;2.47;;;;;;;14.07;77.14;98222.30;1731151;82;26171;-57
2022/06/21 04:04:33;;;;;;;3.05;2.70;;;;;;;14.17;77.03;98225.95;1730422;82;25597;-57
2022/06/21 04:07:31;;;;;;;4.37;2.83;;;;;;;14.29;77.06;98228.45;1730973;82;28257;-57
2022/06/21 04:10:08;;;;;;;5.28;2.60;;;;;;;14.40;77.08;98227.39;1726526;82;25440;-56
2022/06/21 04:12:46;;;;;;;4.58;2.70;;;;;;;14.62;76.21;98237.05;1731381;82;25453;-57
2022/06/21 04:15:49;;;;;;;3.70;2.65;;;;;;;14.78;76.23;98235.77;1731044;82;25729;-57
2022/06/21 04:18:33;;;;;;;5.45;2.67;;;;;;;15.11;74.67;98233.05;1731002;82;25659;-57
2022/06/21 04:21:16;;;;;;;3.90;2.50;;;;;;;15.11;74.67;98233.05;1730997;82;27378;-57
2022/06/21 04:23:51;;;;;;;3.30;2.62;;;;;;;15.22;74.04;98221.69;1740123;82;25652;-58
2022/06/21 04:26:29;;;;;;;4.95;2.45;;;;;;;15.36;74.30;98212.97;1733398;82;25624;-57
2022/06/21 04:29:06;;;;;;;3.35;2.47;;;;;;;15.41;72.23;98218.80;1733054;82;25614;-57
2022/06/21 04:31:44;;;;;;;4.55;2.40;;;;;;;15.49;71.90;98221.16;1733051;82;26743;-57
2022/06/21 04:34:15;;;;;;;4.25;2.25;;;;;;;15.64;72.03;98220.34;1731648;82;27566;-57
2022/06/21 04:36:56;;;;;;;4.62;2.60;;;;;;;15.64;72.03;98220.34;1733544;82;25419;-57
2022/06/21 04:39:33;;;;;;;2.62;2.35;;;;;;;15.71;70.96;98233.50;1731752;82;25728;-57
2022/06/21 04:42:05;;;;;;;4.00;2.37;;;;;;;15.78;70.46;98229.52;1729725;82;26637;-57
2022/06/21 04:44:37;;;;;;;3.52;2.25;;;;;;;15.83;70.48;98229.83;1733212;82;25710;-57
2022/06/21 04:47:17;;;;;;;4.37;2.30;;;;;;;15.87;69.56;98223.82;1731992;82;27016;-57
2022/06/21 04:49:58;;;;;;;3.20;2.55;;;;;;;15.92;69.99;98225.50;1733229;82;25929;-58
2022/06/21 04:52:33;;;;;;;;;;;;;;;16.08;69.87;98217.75;1735318;82;25468;-57
2022/06/21 04:55:03;;;;;;;4.53;2.27;;;;;;;16.10;67.75;98223.73;1755432;81;25557;-57
2022/06/21 04:57:32;;;;;;;5.25;2.40;;;;;;;16.21;68.01;98226.16;1755488;81;25487;-57
2022/06/21 05:00:16;;;;;;;6.00;2.50;;;;;;;16.28;68.35;98229.06;1755103;81;28830;-57
2022/06/21 05:03:03;;;;;;;3.72;2.20;;;;;;;16.29;65.94;98224.31;1755556;81;25626;-57
2022/06/21 05:05:33;;;;;;;4.05;2.12;;;;;;;16.26;65.99;98233.36;1753725;81;25511;-58
2022/06/21 05:08:16;;;;;;;2.83;2.02;;;;;;;16.15;66.34;98243.59;1755402;81;25542;-58
2022/06/21 05:10:48;;;;;;;2.42;2.20;;;;;;;16.13;65.77;98243.17;1754424;81;25653;-57
2022/06/21 05:13:22;;;;;;;2.95;1.98;;;;;;;16.25;66.70;98242.80;1755182;81;27415;-58
2022/06/21 05:15:49;;;;;;;5.05;2.30;;;;;;;16.36;67.03;98253.52;1755303;81;25593;-58
2022/06/21 05:18:24;;;;;;;3.17;1.80;;;;;;;16.38;65.56;98251.78;1755439;81;25451;-57
2022/06/21 05:21:01;;;;;;;2.98;1.80;;;;;;;16.46;66.00;98249.36;1754015;81;25675;-57
2022/06/21 05:23:31;;;;;;;4.08;2.10;;;;;;;16.52;65.03;98251.28;1752618;81;25431;-57
2022/06/21 05:26:02;;;;;;;3.83;1.70;;;;;;;16.55;65.58;98256.86;1752461;81;28068;-57
2022/06/21 05:28:37;;;;;;;5.10;1.95;;;;;;;16.56;64.70;98262.60;1752326;81;25638;-57
2022/06/21 05:31:20;;;;;;;3.87;2.20;;;;;;;16.56;63.86;98260.44;1740975;81;25616;-58
2022/06/21 05:34:04;;;;;;;2.83;1.77;;;;;;;16.58;64.84;98254.55;1752041;81;27472;-57
2022/06/21 05:36:38;;;;;;;4.17;1.85;;;;;;;16.65;65.18;98260.21;1751372;81;25766;-58
2022/06/21 05:39:20;;;;;;;3.40;1.90;;;;;;;16.78;65.11;98265.80;1752107;81;27405;-57
2022/06/21 05:41:45;;;;;;;4.55;1.95;;;;;;;16.90;64.86;98264.84;1751543;81;25606;-58
2022/06/21 05:44:38;;;;;;;3.98;1.92;;;;;;;17.03;64.57;98259.14;1752277;81;25462;-57
2022/06/21 05:47:28;;;;;;;4.55;2.17;;;;;;;16.96;63.64;98257.63;1751502;81;25498;-58
2022/06/21 05:49:57;;;;;;;4.30;2.00;;;;;;;16.87;61.88;98262.02;1751527;81;25463;-56
2022/06/21 05:52:43;;;;;;;5.50;1.90;;;;;;;16.88;61.53;98266.38;1752434;81;28097;-58
2022/06/21 05:55:17;;;;;;;2.00;1.60;;;;;;;16.89;61.03;98271.55;1752140;81;27266;-58
2022/06/21 05:58:00;;;;;;;2.15;1.32;;;;;;;16.97;60.29;98269.72;1752014;81;26018;-57
2022/06/21 06:01:06;;;;;;;3.25;1.90;;;;;;;17.06;60.28;98269.48;1752084;81;25581;-57
2022/06/21 06:04:00;;;;;;;2.02;1.55;;;;;;;17.17;60.54;98273.30;1752338;81;25452;-57
2022/06/21 06:06:34;;;;;;;2.77;1.70;;;;;;;17.08;60.36;98274.69;1752135;81;27389;-58
2022/06/21 06:09:06;;;;;;;2.98;1.60;;;;;;;17.14;59.56;98272.64;1751939;81;25772;-57
2022/06/21 06:12:00;;;;;;;4.17;1.75;;;;;;;17.10;59.78;98277.30;1750325;81;25463;-57
2022/06/21 06:14:35;;;;;;;3.25;1.70;;;;;;;17.10;59.76;98274.52;1752234;81;25626;-57
2022/06/21 06:17:06;;;;;;;4.50;1.72;;;;;;;17.29;60.54;98271.50;1750299;81;25592;-57
2022/06/21 06:19:41;;;;;;;3.37;1.57;;;;;;;17.41;60.20;98276.05;1757463;81;28197;-58
2022/06/21 06:22:22;;;;;;;1.60;1.50;;;;;;;17.50;60.23;98278.59;1753974;81;25728;-57
2022/06/21 06:24:57;;;;;;;;;;;;;;;17.44;58.25;98271.16;1751751;81;25470;-57
2022/06/21 06:27:45;;;;;;;2.70;1.52;;;;;;;17.32;58.65;98276.30;1746733;81;25924;-57
2022/06/21 06:30:15;;;;;;;3.12;1.52;;;;;;;17.59;60.26;98275.56;1685965;84;25779;-58
2022/06/21 06:32:49;;;;;;;3.45;1.50;;;;;;;17.89;57.44;98272.06;1690050;84;27441;-57
2022/06/21 06:35:21;;;;;;;4.17;1.50;;;;;;;17.83;56.74;98272.98;1688504;84;27138;-58
2022/06/21 06:37:48;;;;;;;4.10;1.22;;;;;;;17.79;57.10;98281.83;1690061;84;25490;-58
2022/06/21 06:40:19;;;;;;;2.15;1.45;;;;;;;17.63;56.26;98271.69;1689674;84;25779;-57
2022/06/21 06:42:47;;;;;;;2.67;1.50;;;;;;;17.64;56.92;98275.23;1689006;84;25641;-57
2022/06/21 06:45:21;;;;;;;3.90;1.60;;;;;;;17.55;56.76;98270.77;1689910;84;27373;-57
2022/06/21 06:47:55;;;;;;;2.05;1.47;;;;;;;17.83;57.24;98270.78;1689895;84;25712;-57
2022/06/21 06:50:39;;;;;;;2.55;1.62;;;;;;;18.09;54.97;98271.37;1690094;84;25544;-57
2022/06/21 06:53:11;;;;;;;3.05;1.30;;;;;;;18.01;55.36;98282.14;1689823;84;25704;-57
2022/06/21 06:56:01;;;;;;;1.87;1.40;;;;;;;18.02;55.20;98282.37;1690092;84;25711;-57
2022/06/21 06:58:48;;;;;;;2.33;1.27;;;;;;;17.81;55.69;98280.28;1689101;84;27470;-57
2022/06/21 07:01:19;;;;;;;2.37;1.50;;;;;;;17.72;56.47;98286.66;1689815;84;25894;-58
2022/06/21 07:04:00;;;;;;;2.20;1.22;;;;;;;17.69;56.81;98284.63;1689206;84;25704;-58
2022/06/21 07:06:47;;;;;;;1.20;1.10;;;;;;;17.63;54.88;98279.19;1708897;82;25743;-58
2022/06/21 07:09:25;;;;;;;3.10;1.20;;;;;;;17.79;55.88;98285.38;1747116;82;25429;-57
2022/06/21 07:12:03;;;;;;;2.83;1.32;;;;;;;17.66;55.97;98284.80;1747360;82;27391;-58
2022/06/21 07:14:29;;;;;;;2.17;1.22;;;;;;;17.54;55.22;98293.30;1746741;82;25632;-56
2022/06/21 07:17:33;;;;;;;1.72;1.22;;;;;;;17.56;55.98;98294.52;1747076;81;25469;-56
2022/06/21 07:20:01;;;;;;;1.80;1.10;;;;;;;17.44;54.92;98301.63;1747335;82;25812;-57
2022/06/21 07:22:35;;;;;;;2.33;1.07;;;;;;;17.28;55.17;98300.38;1748154;81;25435;-56
2022/06/21 07:25:43;;;;;;;2.40;1.30;;;;;;;17.28;54.86;98293.45;1749368;81;28406;-56
2022/06/21 07:28:21;;;;;;;4.12;1.27;;;;;;;17.38;55.01;98303.91;1751496;81;25462;-57
2022/06/21 07:30:51;;;;;;;4.70;1.40;;;;;;;17.52;54.91;98296.44;1721462;83;25656;-57
2022/06/21 07:33:37;;;;;;;1.92;1.12;;;;;;;17.56;55.64;98299.28;1755171;81;26342;-58
2022/06/21 07:36:24;;;;;;;1.77;1.00;;;;;;;17.67;54.57;98305.78;1755185;81;25715;-58
2022/06/21 07:38:56;;;;;;;2.50;1.50;;;;;;;17.75;54.31;98301.16;1755621;81;27459;-58
2022/06/21 07:41:33;;;;;;;2.58;1.20;;;;;;;17.95;55.17;98296.91;1755201;81;25466;-57
2022/06/21 07:44:25;;;;;;;1.60;1.20;;;;;;;18.23;54.07;98308.83;1755618;81;25490;-56
2022/06/21 07:46:57;;;;;;;1.55;1.10;;;;;;;18.23;52.27;98305.48;1754995;81;25644;-56
2022/06/21 07:49:37;;;;;;;2.37;1.12;;;;;;;17.96;51.04;98307.42;1755166;81;25525;-56
2022/06/21 07:52:10;;;;;;;;;;;;;;;18.09;54.46;98310.77;1758129;81;27975;-56
2022/06/21 07:54:42;;;;;;;1.37;1.27;;;;;;;18.46;53.39;98311.53;1755255;81;25705;-56
2022/06/21 07:57:13;;;;;;;2.45;1.20;;;;;;;18.44;53.39;98311.10;1755586;81;25632;-56
2022/06/21 07:59:45;;;;;;;1.77;1.12;;;;;;;18.31;53.68;98302.22;1754895;81;25428;-56
2022/06/21 08:08:30;;;;;;;1.40;1.00;;;;;;;18.04;53.38;98304.95;1755306;81;25620;-56
2022/06/21 08:11:10;;;;;;;1.85;1.17;;;;;;;17.94;53.63;98301.64;1754752;81;25422;-56
2022/06/21 08:13:40;;;;;;;1.90;1.20;;;;;;;17.83;53.04;98297.11;1754722;81;27592;-56
2022/06/21 08:16:14;;;;;;;1.98;1.02;;;;;;;17.81;53.47;98303.03;1755218;81;25578;-56
2022/06/21 08:18:45;;;;;;;3.47;1.42;;;;;;;17.80;53.29;98305.02;1755603;81;27467;-56
2022/06/21 08:21:20;;;;;;;1.15;1.05;;;;;;;17.93;53.48;98296.47;1755119;81;25416;-56
2022/06/21 08:24:04;;;;;;;1.15;0.80;;;;;;;18.28;54.64;98294.65;1751580;81;25721;-57
2022/06/21 08:26:42;;;;;;;1.72;0.82;;;;;;;18.46;52.56;98300.44;1755213;81;25983;-57
2022/06/21 08:29:19;;;;;;;1.60;1.00;;;;;;;18.39;52.70;98303.13;1755770;81;25573;-57
2022/06/21 08:31:54;;;;;;;2.87;1.07;;;;;;;18.12;51.69;98316.41;1754827;81;27380;-57
2022/06/21 08:34:44;;;;;;;2.35;0.90;;;;;;;18.00;52.03;98308.27;1755495;81;25919;-57
2022/06/21 08:37:18;;;;;;;1.90;0.80;;;;;;;18.53;52.61;98308.84;1755755;81;25625;-56
2022/06/21 08:39:56;;;;;;;2.75;0.70;;;;;;;18.55;49.80;98314.02;1754138;81;25479;-56
2022/06/21 08:42:40;;;;;;;3.52;1.20;;;;;;;18.75;49.32;98303.58;1755455;81;25704;-58
2022/06/21 08:45:41;;;;;;;2.33;0.90;;;;;;;18.91;49.34;98318.63;1753805;81;27537;-56
2022/06/21 08:48:56;;;;;;;0.90;0.72;;;;;;;18.97;50.31;98310.75;1754267;81;25738;-58
2022/06/21 08:52:17;;;;;;;2.25;0.82;;;;;;;19.41;52.06;98317.61;1755238;81;25597;-58
2022/06/21 08:54:52;;;;;;;1.37;0.72;;;;;;;19.59;50.55;98319.74;1754974;81;25587;-59
2022/06/21 08:57:57;;;;;;;1.20;0.70;;;;;;;19.24;49.60;98323.19;1740208;81;25596;-58
2022/06/21 09:00:47;;;;;;;1.77;0.80;;;;;;;19.33;49.23;98318.70;1754660;81;27395;-56
2022/06/21 09:03:22;;;;;;;1.40;0.70;;;;;;;19.26;49.18;98318.03;1755113;81;25635;-58
2022/06/21 09:06:13;;;;;;;0.60;0.60;;;;;;;19.18;50.48;98317.77;1754872;81;25391;-58
2022/06/21 09:08:51;;;;;;;3.15;0.70;;;;;;;19.08;48.28;98322.01;1755203;81;25871;-58
2022/06/21 09:11:50;;;;;;;1.67;0.90;;;;;;;18.93;49.15;98326.00;1754920;81;25614;-59
2022/06/21 09:14:48;;;;;;;1.85;0.78;;;;;;;18.75;50.47;98336.88;1754712;81;29604;-58
2022/06/21 09:17:39;;;;;;;1.10;0.90;;;;;;;18.73;51.83;98325.92;1754619;81;25673;-58
2022/06/21 09:20:28;;;;;;;2.42;0.90;;;;;;;18.70;50.58;98323.33;1755250;81;37073;-57
2022/06/21 09:23:31;;;;;;;1.98;0.90;;;;;;;18.90;51.39;98324.55;1755371;81;25613;-56
2022/06/21 09:26:35;;;;;;;0.95;0.65;;;;;;;19.17;50.91;98324.51;1757102;81;25646;-56
2022/06/21 09:29:35;;;;;;;1.25;0.80;;;;;;;19.40;49.91;98320.16;1757921;81;28225;-56
2022/06/21 09:32:24;;;;;;;;;;;;;;;19.22;49.30;98331.09;1760570;81;25444;-57
2022/06/21 09:35:32;;;;;;;1.65;0.72;;;;;;;19.00;50.59;98325.27;1757755;81;25442;-58
2022/06/21 09:38:33;;;;;;;1.05;0.80;;;;;;;18.99;50.15;98330.61;1758105;81;25638;-58
2022/06/21 09:41:32;;;;;;;1.00;0.90;;;;;;;19.14;51.10;98333.59;1757483;81;25617;-58
2022/06/21 09:44:35;;;;;;;2.22;1.00;;;;;;;19.62;50.97;98328.70;1757808;81;28209;-58
2022/06/21 09:47:09;;;;;;;1.20;0.98;;;;;;;20.09;48.91;98317.78;1699944;84;26537;-58
2022/06/21 09:50:03;;;;;;;1.87;0.88;;;;;;;20.28;49.28;98327.25;1699970;84;25655;-58
2022/06/21 09:52:56;;;;;;;1.95;0.82;;;;;;;20.55;47.79;98318.64;1700372;84;25769;-59
2022/06/21 09:55:38;;;;;;;2.62;1.00;;;;;;;20.66;48.46;98317.30;1699845;84;25770;-57
2022/06/21 09:58:46;;;;;;;1.05;0.80;;;;;;;20.86;48.42;98318.38;1700624;84;27402;-58
2022/06/21 10:01:24;;;;;;;1.55;1.05;;;;;;;20.84;46.66;98329.72;1700347;84;25818;-57
2022/06/21 10:04:19;;;;;;;1.40;1.00;;;;;;;20.62;48.54;98323.45;1699881;84;25691;-57
2022/06/21 10:07:09;;;;;;;2.52;0.90;;;;;;;20.41;48.10;98321.36;1699845;84;25715;-58
2022/06/21 10:10:06;;;;;;;1.42;1.15;;;;;;;19.81;46.74;98338.78;1700311;84;25766;-58
2022/06/21 10:13:02;;;;;;;1.77;1.00;;;;;;;19.30;47.93;98335.55;1698836;84;27538;-57
2022/06/21 10:15:49;;;;;;;1.40;1.02;;;;;;;19.12;49.22;98344.28;1698229;84;25708;-57
2022/06/21 10:18:54;;;;;;;2.20;1.50;;;;;;;19.22;50.66;98334.45;1700171;84;25501;-58
2022/06/21 10:21:47;;;;;;;3.55;1.45;;;;;;;19.63;49.76;98333.69;1699986;84;27560;-57
2022/06/21 10:24:39;;;;;;;2.60;1.00;;;;;;;20.42;49.08;98340.45;1729825;81;25776;-57
2022/06/21 10:27:33;;;;;;;3.12;1.32;;;;;;;20.63;48.79;98335.38;1758167;81;27257;-57
2022/06/21 10:30:43;;;;;;;1.77;0.90;;;;;;;20.53;48.17;98336.31;1758102;81;25637;-57
2022/06/21 10:33:34;;;;;;;3.53;1.00;;;;;;;20.19;48.43;98344.88;1757380;81;25740;-57
2022/06/21 10:36:18;;;;;;;2.17;0.90;;;;;;;19.93;47.54;98344.66;1733367;81;26234;-58
2022/06/21 10:38:56;;;;;;;2.52;0.93;;;;;;;19.81;48.16;98344.95;1756781;81;25652;-58
2022/06/21 10:45:05;;;;;;;2.05;1.22;;;;;;;19.99;48.76;98331.19;1757836;81;25661;-57
2022/06/21 10:47:55;;;;;;;1.00;0.90;;;;;;;20.05;48.22;98338.02;1757922;81;25715;-58
2022/06/21 10:50:55;;;;;;;1.10;1.00;;;;;;;19.89;47.84;98330.52;1757958;81;32911;-57
2022/06/21 10:53:45;;;;;;;0.80;0.80;;;;;;;19.67;47.45;98333.92;1700101;84;25725;-57
2022/06/21 11:01:16;;;;;;;3.50;0.93;;;;;;;19.28;49.42;98324.59;1700624;84;25722;-57
2022/06/21 11:02:14;;;;;;;3.02;1.10;;;;;;;18.97;48.19;98329.41;1699584;84;25761;-57
2022/06/21 11:04:54;;;;;;;2.20;1.10;;;;;;;18.75;49.51;98336.88;1700162;84;25595;-58
2022/06/21 11:07:36;;;;;;;;;;;;;;;18.55;50.38;98348.13;1702978;84;25694;-57
2022/06/21 11:10:07;;;;;;;1.37;0.90;;;;;;;18.49;50.16;98348.81;1700375;84;27440;-57
2022/06/21 11:12:56;;;;;;;1.50;1.00;;;;;;;18.45;50.80;98350.14;1700462;84;25762;-58
2022/06/21 11:15:42;;;;;;;1.30;0.90;;;;;;;18.45;51.17;98347.98;1700115;83;25830;-57
2022/06/21 11:18:32;;;;;;;1.55;1.02;;;;;;;18.42;50.41;98346.16;1700162;84;25715;-57
2022/06/21 11:21:25;;;;;;;1.05;0.95;;;;;;;18.52;50.67;98350.84;1700039;84;25502;-57
2022/06/21 11:24:06;;;;;;;5.80;1.20;;;;;;;18.50;50.00;98351.22;1700284;84;28200;-57
2022/06/21 11:26:53;;;;;;;2.12;1.25;;;;;;;18.46;50.09;98344.83;1697452;84;25461;-57
2022/06/21 11:29:37;;;;;;;3.08;1.10;;;;;;;18.43;50.68;98347.74;1715374;81;25589;-57
2022/06/21 11:32:14;;;;;;;3.60;0.90;;;;;;;18.54;51.11;98350.67;1757058;81;25708;-57
2022/06/21 11:35:21;;;;;;;1.60;1.00;;;;;;;18.60;50.75;98347.00;1757913;81;25648;-57
2022/06/21 11:38:07;;;;;;;1.42;1.12;;;;;;;18.64;51.51;98348.42;1757770;81;27412;-57
2022/06/21 11:40:54;;;;;;;1.32;1.10;;;;;;;18.67;51.09;98343.51;1757759;81;25612;-58
2022/06/21 11:43:35;;;;;;;2.75;1.10;;;;;;;18.87;51.75;98345.55;1734748;81;25863;-57
2022/06/21 11:46:16;;;;;;;;;;;;;;;19.08;50.49;98346.19;1759410;81;25698;-57
2022/06/21 11:49:06;;;;;;;2.20;0.90;;;;;;;19.22;50.38;98338.61;1757574;81;25460;-57
2022/06/21 11:52:16;;;;;;;2.72;0.90;;;;;;;19.41;50.89;98340.41;1757711;81;29545;-57
2022/06/21 11:55:03;;;;;;;2.58;1.10;;;;;;;19.67;49.21;98327.55;1757360;81;25411;-57
2022/06/21 11:57:46;;;;;;;3.08;1.10;;;;;;;19.90;51.32;98346.82;1757502;81;25383;-58
2022/06/21 12:00:45;;;;;;;3.20;1.25;;;;;;;20.04;49.61;98346.75;1757890;81;25459;-58
2022/06/21 12:03:17;;;;;;;4.25;0.95;;;;;;;20.04;49.12;98348.14;1757405;81;25461;-57
2022/06/21 12:05:57;;;;;;;1.45;1.00;;;;;;;20.14;50.35;98348.81;1756581;81;27993;-58
2022/06/21 12:08:43;;;;;;;3.90;1.10;;;;;;;20.48;49.76;98348.42;1757700;81;25682;-58
2022/06/21 12:11:27;;;;;;;2.37;1.20;;;;;;;20.62;48.71;98340.16;1757890;81;25612;-58
2022/06/21 12:14:20;;;;;;;1.90;1.10;;;;;;;20.55;48.62;98340.91;1757281;81;25629;-58
2022/06/21 12:17:20;;;;;;;2.80;1.10;;;;;;;20.41;48.35;98334.66;1757167;81;25699;-57
2022/06/21 12:19:53;;;;;;;2.45;1.10;;;;;;;20.12;48.95;98331.70;1757767;81;27355;-57
2022/06/21 12:22:44;;;;;;;2.85;0.90;;;;;;;19.78;48.30;98335.99;1756696;81;25601;-57
2022/06/21 12:25:14;;;;;;;;;;;;;;;19.47;48.87;98341.67;1760362;81;25418;-57
2022/06/21 12:27:41;;;;;;;1.17;1.00;;;;;;;19.56;49.28;98344.94;1758369;81;25404;-57
2022/06/21 12:30:19;;;;;;;3.15;1.20;;;;;;;19.72;48.28;98339.72;1752793;81;25634;-59
2022/06/21 12:32:47;;;;;;;1.20;1.10;;;;;;;19.69;47.13;98333.55;1754488;81;27643;-58
2022/06/21 12:35:18;;;;;;;1.45;1.07;;;;;;;19.65;47.76;98339.64;1749916;81;25632;-57
2022/06/21 12:37:50;;;;;;;2.47;0.82;;;;;;;19.72;48.17;98338.34;1746848;81;25473;-58
2022/06/21 12:40:30;;;;;;;1.98;0.95;;;;;;;20.39;48.60;98331.48;1746883;81;25628;-57
2022/06/21 12:43:37;;;;;;;1.95;1.20;;;;;;;21.33;45.15;98332.28;1752104;81;25610;-57
2022/06/21 12:46:14;;;;;;;2.58;1.25;;;;;;;22.04;44.77;98332.15;1715079;83;27383;-57
2022/06/21 12:49:15;;;;;;;1.67;1.10;;;;;;;22.15;44.26;98327.15;1715963;83;25778;-57